Terminal Aerodrome Forecast
Issued by NWS Duluth, MN

Home | Current Version | Previous Version | Text Only | Print | Product List | Glossary On
Versions: 1 2 3 4 5 6 7 8 9 10 11 12 13 14
886
FTUS43 KDLH 211153
TAFINL
TAF
KINL 211153Z 2112/2212 27004KT P6SM SKC
     FM211600 29011G18KT P6SM SCT060
     FM220100 28008KT P6SM SKC=

USA.gov is the U.S. government's official web portal to all federal, state and local government web resources and services.